Time;durP1;ratioP1;P1;durP2;ratioP2;P2;SDS_P1;SDS_P2;PMS_P1;PMS_P2;Temp;Humidity;BMP_temperature;BMP_pressure;BME280_temperature;BME280_humidity;BME280_pressure;Samples;Min_cycle;Max_cycle;Signal;HPM_P1;HPM_P2
2023/05/02 00:01:49;;;;;;;39.47;28.38;;;15.60;96.90;;;;;;4994414;28;20065;-68
2023/05/02 00:04:15;;;;;;;41.75;28.20;;;15.50;96.90;;;;;;4994119;28;20169;-69
2023/05/02 00:06:41;;;;;;;41.05;26.52;;;15.60;96.90;;;;;;4995545;28;20112;-69
2023/05/02 00:09:07;;;;;;;41.35;28.55;;;15.50;97.00;;;;;;4994608;28;20033;-69
2023/05/02 00:11:33;;;;;;;37.78;27.35;;;15.60;97.00;;;;;;4995632;28;20042;-69
2023/05/02 00:13:59;;;;;;;35.72;27.77;;;15.50;97.00;;;;;;4995106;28;20495;-69
2023/05/02 00:16:24;;;;;;;37.67;27.70;;;15.50;97.30;;;;;;4994365;28;20490;-70
2023/05/02 00:18:50;;;;;;;35.55;27.88;;;15.50;97.20;;;;;;4995313;28;20173;-69
2023/05/02 00:21:15;;;;;;;36.55;28.02;;;15.50;97.30;;;;;;4995687;28;20437;-70
2023/05/02 00:23:41;;;;;;;37.15;27.08;;;15.50;97.30;;;;;;4995411;28;20435;-68
2023/05/02 00:26:10;;;;;;;35.40;27.40;;;15.50;97.40;;;;;;4994189;28;20033;-69
2023/05/02 00:28:35;;;;;;;37.92;27.63;;;15.50;97.40;;;;;;4975239;28;20047;-68
2023/05/02 00:31:01;;;;;;;36.33;27.65;;;15.50;97.50;;;;;;4975558;28;20349;-69
2023/05/02 00:33:27;;;;;;;31.23;26.75;;;15.40;97.40;;;;;;4991127;28;20041;-70
2023/05/02 00:35:53;;;;;;;38.55;28.88;;;15.40;97.50;;;;;;4994920;28;20038;-70
2023/05/02 00:38:18;;;;;;;38.85;29.23;;;15.40;97.50;;;;;;4994957;28;20037;-69
2023/05/02 00:40:49;;;;;;;38.65;27.95;;;15.40;97.60;;;;;;4994756;28;20022;-69
2023/05/02 00:43:16;;;;;;;36.75;28.90;;;15.40;97.60;;;;;;4993900;28;20380;-69
2023/05/02 00:45:43;;;;;;;39.67;28.20;;;15.40;97.70;;;;;;4994738;28;20081;-69
2023/05/02 00:48:09;;;;;;;38.08;29.35;;;15.40;97.70;;;;;;4994840;28;20440;-68
2023/05/02 00:50:37;;;;;;;36.20;28.40;;;15.30;97.70;;;;;;4994548;28;20380;-69
2023/05/02 00:53:03;;;;;;;34.83;27.55;;;15.30;97.80;;;;;;4993952;28;20030;-70
2023/05/02 00:55:30;;;;;;;36.67;27.65;;;15.30;97.80;;;;;;4994032;28;20112;-68
2023/05/02 00:57:56;;;;;;;43.53;29.38;;;15.30;97.90;;;;;;4994340;28;20022;-68
2023/05/02 01:00:35;;;;;;;35.72;27.95;;;15.30;98.00;;;;;;4994547;28;20036;-69
2023/05/02 01:03:39;;;;;;;34.65;28.02;;;15.30;98.00;;;;;;4993814;28;20379;-68
2023/05/02 01:06:23;;;;;;;42.47;30.17;;;15.30;98.10;;;;;;4977468;28;20042;-70
2023/05/02 01:08:57;;;;;;;40.28;28.73;;;15.30;98.10;;;;;;4994492;28;20034;-69
2023/05/02 01:11:37;;;;;;;34.78;27.08;;;15.20;98.10;;;;;;4994452;28;20120;-68
2023/05/02 01:14:07;;;;;;;36.33;27.80;;;15.20;98.10;;;;;;4992871;28;20042;-68
2023/05/02 01:16:39;;;;;;;36.45;28.88;;;15.20;98.20;;;;;;4994285;28;20015;-69
2023/05/02 01:19:08;;;;;;;37.47;28.42;;;15.20;98.20;;;;;;4994208;28;20057;-69
2023/05/02 01:21:35;;;;;;;36.92;28.02;;;15.20;98.30;;;;;;4993434;28;20031;-68
2023/05/02 01:24:10;;;;;;;35.53;26.63;;;15.20;98.40;;;;;;4994250;28;20096;-71
2023/05/02 01:27:03;;;;;;;38.20;28.92;;;15.20;98.30;;;;;;4993867;28;20109;-67
2023/05/02 01:29:30;;;;;;;39.08;28.90;;;15.20;98.40;;;;;;4993438;28;20049;-69
2023/05/02 01:31:57;;;;;;;37.85;27.63;;;15.20;98.30;;;;;;4992648;28;20034;-67
2023/05/02 01:34:24;;;;;;;39.00;28.42;;;15.20;98.10;;;;;;4993850;28;20034;-68
2023/05/02 01:36:50;;;;;;;37.53;28.73;;;15.20;98.20;;;;;;4993779;28;20120;-71
2023/05/02 01:39:22;;;;;;;34.85;27.83;;;15.20;98.10;;;;;;4994249;28;20025;-69
2023/05/02 01:41:52;;;;;;;35.50;29.05;;;15.20;98.20;;;;;;4992594;28;20061;-71
2023/05/02 01:44:20;;;;;;;36.55;26.27;;;15.10;98.20;;;;;;4993937;28;20030;-68
2023/05/02 01:46:47;;;;;;;35.53;26.67;;;15.20;98.20;;;;;;4994023;28;20023;-71
2023/05/02 01:49:13;;;;;;;36.22;26.73;;;15.20;98.10;;;;;;4993634;28;20026;-69
2023/05/02 01:51:49;;;;;;;38.30;27.30;;;15.10;98.10;;;;;;4992831;28;20077;-68
2023/05/02 01:54:17;;;;;;;37.88;27.15;;;15.20;98.20;;;;;;4993780;28;20480;-71
2023/05/02 01:56:44;;;;;;;38.58;28.85;;;15.10;98.20;;;;;;4993286;28;20026;-68
2023/05/02 01:59:21;;;;;;;36.40;29.23;;;15.10;98.20;;;;;;4992009;28;20030;-68
2023/05/02 02:01:48;;;;;;;37.83;28.48;;;15.10;98.30;;;;;;4993651;28;20371;-68
2023/05/02 02:04:15;;;;;;;38.63;28.15;;;15.10;98.20;;;;;;4993324;28;20050;-68
2023/05/02 02:06:46;;;;;;;39.13;29.42;;;15.10;98.20;;;;;;4993509;28;20042;-69
2023/05/02 02:09:11;;;;;;;38.53;30.42;;;15.10;98.20;;;;;;4992328;28;20114;-68
2023/05/02 02:11:45;;;;;;;38.72;30.02;;;15.00;98.20;;;;;;4993079;28;20042;-69
2023/05/02 02:14:31;;;;;;;41.90;31.27;;;15.00;98.20;;;;;;4993527;28;20030;-68
2023/05/02 02:17:01;;;;;;;42.03;30.33;;;15.00;98.20;;;;;;4993851;28;20023;-67
2023/05/02 02:19:29;;;;;;;40.95;29.25;;;14.90;98.20;;;;;;4993098;28;20030;-69
2023/05/02 02:21:57;;;;;;;37.30;29.10;;;15.00;98.20;;;;;;4993470;28;20037;-69
2023/05/02 02:24:24;;;;;;;41.97;30.88;;;15.00;98.20;;;;;;4993183;28;20104;-70
2023/05/02 02:26:51;;;;;;;41.30;29.92;;;14.90;98.20;;;;;;4995966;28;20052;-69
2023/05/02 02:29:16;;;;;;;41.78;30.35;;;14.90;98.20;;;;;;4996299;28;20391;-71
2023/05/02 02:31:42;;;;;;;40.55;30.70;;;14.90;98.30;;;;;;4997261;28;20487;-69
2023/05/02 02:34:08;;;;;;;40.90;30.60;;;14.90;98.30;;;;;;4997268;28;20476;-71
2023/05/02 02:36:43;;;;;;;41.33;30.02;;;14.90;98.30;;;;;;4997191;28;20034;-69
2023/05/02 02:39:35;;;;;;;41.70;31.27;;;14.80;98.40;;;;;;4996070;28;20058;-72
2023/05/02 02:42:20;;;;;;;44.65;31.48;;;14.90;98.50;;;;;;4997097;28;20476;-68
2023/05/02 02:44:54;;;;;;;39.20;29.02;;;14.80;98.50;;;;;;4997087;28;20026;-68
2023/05/02 02:47:28;;;;;;;40.72;29.92;;;14.80;98.50;;;;;;4996207;28;20034;-68
2023/05/02 02:50:05;;;;;;;43.83;31.88;;;14.80;98.50;;;;;;4997032;28;20098;-68
2023/05/02 02:52:47;;;;;;;40.45;32.15;;;14.70;98.50;;;;;;4996852;28;20088;-69
2023/05/02 02:55:30;;;;;;;43.03;31.15;;;14.70;98.40;;;;;;4996734;28;20021;-69
2023/05/02 02:58:26;;;;;;;42.33;30.98;;;14.70;98.50;;;;;;4995865;28;20022;-68
2023/05/02 03:00:52;;;;;;;40.95;30.48;;;14.70;98.50;;;;;;4956461;28;20049;-69
2023/05/02 03:03:22;;;;;;;41.70;29.77;;;14.70;98.60;;;;;;4996503;28;20121;-71
2023/05/02 03:05:48;;;;;;;39.63;29.08;;;14.70;98.70;;;;;;4997083;28;20022;-68
2023/05/02 03:08:14;;;;;;;37.50;29.83;;;14.60;98.70;;;;;;4995185;28;20041;-70
2023/05/02 03:10:39;;;;;;;41.30;29.75;;;14.70;98.70;;;;;;4996676;28;20022;-71
2023/05/02 03:13:05;;;;;;;36.78;28.45;;;14.70;98.70;;;;;;4995080;28;20034;-69
2023/05/02 03:16:04;;;;;;;36.90;28.20;;;14.60;98.70;;;;;;4996429;28;20070;-71
2023/05/02 03:18:29;;;;;;;40.25;27.88;;;14.60;98.60;;;;;;4952482;28;20057;-68
2023/05/02 03:20:55;;;;;;;36.47;27.90;;;14.70;98.60;;;;;;4996336;28;20387;-69
2023/05/02 03:23:21;;;;;;;34.08;26.00;;;14.60;98.60;;;;;;4996059;28;20030;-68
2023/05/02 03:25:47;;;;;;;34.75;25.88;;;14.60;98.50;;;;;;4996421;28;20023;-71
2023/05/02 03:28:13;;;;;;;35.97;27.00;;;14.60;98.50;;;;;;4995714;28;20022;-68
2023/05/02 03:30:40;;;;;;;34.33;24.58;;;14.60;98.50;;;;;;4996483;28;20024;-70
2023/05/02 03:33:07;;;;;;;32.58;25.27;;;14.60;98.50;;;;;;4996237;28;20030;-70
2023/05/02 03:35:33;;;;;;;30.92;24.30;;;14.60;98.50;;;;;;4996256;28;20029;-70
2023/05/02 03:37:58;;;;;;;31.15;24.02;;;14.60;98.60;;;;;;4994597;28;20038;-70
2023/05/02 03:40:25;;;;;;;31.42;23.45;;;14.60;98.50;;;;;;4995936;28;20050;-71
2023/05/02 03:42:51;;;;;;;31.38;24.08;;;14.60;98.50;;;;;;4996036;28;20031;-68
2023/05/02 03:45:17;;;;;;;30.60;23.65;;;14.60;98.50;;;;;;4995850;28;20041;-68
2023/05/02 03:47:42;;;;;;;29.88;23.98;;;14.60;98.60;;;;;;4995212;28;20554;-69
2023/05/02 03:50:08;;;;;;;32.28;24.10;;;14.50;98.60;;;;;;4995879;28;20423;-70
2023/05/02 03:52:34;;;;;;;32.35;24.42;;;14.50;98.60;;;;;;4993708;28;20082;-69
2023/05/02 03:55:00;;;;;;;30.25;23.48;;;14.50;98.60;;;;;;4991002;28;20076;-66
2023/05/02 03:57:29;;;;;;;31.73;23.50;;;14.50;98.60;;;;;;4993337;28;20030;-69
2023/05/02 03:59:55;;;;;;;29.60;21.13;;;14.50;98.60;;;;;;4993988;28;20019;-69
2023/05/02 04:02:20;;;;;;;26.73;19.13;;;14.50;98.60;;;;;;4994744;28;20435;-69
2023/05/02 04:04:46;;;;;;;27.83;19.27;;;14.50;98.60;;;;;;4994851;28;20039;-71
2023/05/02 04:07:17;;;;;;;20.65;16.73;;;14.50;98.60;;;;;;4995530;28;20035;-69
2023/05/02 04:09:43;;;;;;;21.40;16.70;;;14.60;99.00;;;;;;4995653;28;20019;-68
2023/05/02 04:12:08;;;;;;;22.92;15.98;;;14.50;98.60;;;;;;4993745;28;20049;-69
2023/05/02 04:14:34;;;;;;;18.77;14.52;;;14.50;98.70;;;;;;4995485;28;20022;-68
2023/05/02 04:16:59;;;;;;;20.23;15.10;;;14.60;98.60;;;;;;4994527;28;20506;-68
2023/05/02 04:19:26;;;;;;;19.60;13.70;;;14.60;98.50;;;;;;4995299;28;20105;-69
2023/05/02 04:21:51;;;;;;;16.42;12.80;;;14.70;98.60;;;;;;4984695;28;20037;-69
2023/05/02 04:24:17;;;;;;;17.17;12.45;;;14.70;98.50;;;;;;4975189;28;20031;-69
2023/05/02 04:26:46;;;;;;;14.82;12.05;;;14.80;98.40;;;;;;4975789;28;20098;-69
2023/05/02 04:29:12;;;;;;;15.43;11.20;;;14.80;98.40;;;;;;4975595;28;20023;-69
2023/05/02 04:31:38;;;;;;;13.10;10.15;;;14.90;98.40;;;;;;4975776;28;20033;-69
2023/05/02 04:34:05;;;;;;;13.35;10.13;;;14.90;98.40;;;;;;4975929;28;20101;-69
2023/05/02 04:36:30;;;;;;;13.82;9.77;;;14.90;98.50;;;;;;4973811;28;20484;-68
2023/05/02 04:38:56;;;;;;;13.57;8.18;;;14.90;98.50;;;;;;4974734;28;20107;-68
2023/05/02 04:41:22;;;;;;;10.95;7.72;;;14.90;98.50;;;;;;4974696;28;20472;-69
2023/05/02 04:43:47;;;;;;;9.02;7.03;;;15.00;98.40;;;;;;4974635;28;20472;-70
2023/05/02 04:46:13;;;;;;;16.88;7.40;;;14.80;98.40;;;;;;4974491;28;20034;-69
2023/05/02 04:48:41;;;;;;;11.15;6.65;;;14.50;98.40;;;;;;4973972;28;20023;-70
2023/05/02 04:51:08;;;;;;;10.73;5.30;;;14.30;98.70;;;;;;4974228;28;20046;-69
2023/05/02 04:53:33;;;;;;;11.75;5.30;;;13.90;99.20;;;;;;4974483;28;20034;-71
2023/05/02 04:55:59;;;;;;;9.55;5.15;;;14.10;99.80;;;;;;4974417;28;20031;-70
2023/05/02 04:58:25;;;;;;;10.00;5.28;;;13.80;99.30;;;;;;4974351;28;20027;-69
2023/05/02 05:00:50;;;;;;;10.18;5.43;;;13.80;99.30;;;;;;4976073;28;20106;-69
2023/05/02 05:03:16;;;;;;;10.18;6.00;;;13.80;99.20;;;;;;4993854;28;20480;-69
2023/05/02 05:05:42;;;;;;;9.98;6.28;;;13.80;99.20;;;;;;4993207;28;20038;-69
2023/05/02 05:08:07;;;;;;;9.40;6.05;;;13.60;99.50;;;;;;4993090;28;20618;-69
2023/05/02 05:10:33;;;;;;;11.57;7.05;;;13.60;99.50;;;;;;4993681;28;20027;-68
2023/05/02 05:12:58;;;;;;;13.75;7.50;;;13.70;99.80;;;;;;4993684;28;20061;-68
2023/05/02 05:15:26;;;;;;;11.45;7.88;;;13.60;99.60;;;;;;4993607;28;20471;-69
2023/05/02 05:17:51;;;;;;;13.60;6.93;;;13.70;99.50;;;;;;4993591;28;20074;-69
2023/05/02 05:20:17;;;;;;;11.93;6.88;;;13.80;99.70;;;;;;4988132;28;20417;-69
2023/05/02 05:22:43;;;;;;;8.13;5.03;;;13.70;99.10;;;;;;4986465;28;20027;-70
2023/05/02 05:25:09;;;;;;;16.65;6.40;;;13.90;99.50;;;;;;4990813;28;20019;-69
2023/05/02 05:27:36;;;;;;;8.32;5.75;;;13.80;98.70;;;;;;4988398;28;20034;-70
2023/05/02 05:30:05;;;;;;;8.88;5.80;;;13.90;99.20;;;;;;4987017;28;20022;-70
2023/05/02 05:32:32;;;;;;;7.45;5.10;;;13.60;98.80;;;;;;4976694;28;20047;-70
2023/05/02 05:34:58;;;;;;;10.55;5.97;;;13.70;99.60;;;;;;4973732;28;20027;-69
2023/05/02 05:37:23;;;;;;;9.80;6.07;;;13.60;98.70;;;;;;4950505;28;1247062;-70
2023/05/02 05:39:49;;;;;;;10.23;6.50;;;13.40;98.20;;;;;;4994047;28;20085;-69
2023/05/02 05:42:14;;;;;;;10.95;6.63;;;13.30;98.40;;;;;;5001280;28;20030;-69
2023/05/02 05:44:40;;;;;;;10.73;6.18;;;13.20;98.20;;;;;;4993945;28;20502;-69
2023/05/02 05:47:06;;;;;;;15.45;6.68;;;13.10;98.40;;;;;;4993093;28;20468;-70
2023/05/02 05:49:31;;;;;;;8.80;6.28;;;13.00;98.30;;;;;;4993391;28;20034;-70
2023/05/02 05:51:57;;;;;;;10.13;5.85;;;12.90;98.40;;;;;;4993352;28;20037;-70
2023/05/02 05:54:23;;;;;;;12.52;5.30;;;13.00;98.40;;;;;;5002866;28;20045;-70
2023/05/02 05:56:49;;;;;;;10.40;5.22;;;13.00;98.30;;;;;;5013190;28;20475;-69
2023/05/02 05:59:14;;;;;;;10.77;5.65;;;12.80;98.20;;;;;;5006143;28;20395;-69
2023/05/02 06:01:40;;;;;;;8.52;3.95;;;12.70;98.30;;;;;;4991700;28;20030;-69
2023/05/02 06:04:06;;;;;;;13.32;5.43;;;12.90;98.20;;;;;;4988100;28;20015;-69
2023/05/02 06:06:32;;;;;;;10.70;4.50;;;12.70;98.40;;;;;;4990383;28;20042;-71
2023/05/02 06:08:57;;;;;;;8.75;4.40;;;12.80;98.70;;;;;;4995820;28;20470;-71
2023/05/02 06:11:23;;;;;;;11.43;4.47;;;13.00;99.90;;;;;;4992613;28;20034;-71
2023/05/02 06:13:51;;;;;;;12.23;4.25;;;12.90;98.50;;;;;;4992369;28;20033;-68
2023/05/02 06:16:17;;;;;;;10.30;4.20;;;13.00;98.60;;;;;;4992851;28;20025;-71
2023/05/02 06:18:43;;;;;;;8.98;3.85;;;13.00;97.90;;;;;;4992548;28;20031;-71
2023/05/02 06:21:08;;;;;;;8.10;3.83;;;13.10;97.60;;;;;;4992702;28;20084;-71
2023/05/02 06:23:34;;;;;;;8.43;3.40;;;13.10;98.00;;;;;;4993601;28;20022;-69
2023/05/02 06:26:01;;;;;;;7.85;2.97;;;12.80;97.40;;;;;;4992417;28;20460;-70
2023/05/02 06:28:27;;;;;;;6.93;2.97;;;12.70;97.50;;;;;;4992988;28;20037;-70
2023/05/02 06:31:04;;;;;;;6.35;2.05;;;12.70;97.30;;;;;;4993125;28;20045;-71
2023/05/02 06:33:31;;;;;;;7.35;3.00;;;12.60;96.70;;;;;;4993176;28;20030;-70
2023/05/02 06:35:57;;;;;;;7.82;2.60;;;12.60;97.00;;;;;;4993449;28;20030;-70
2023/05/02 06:38:23;;;;;;;5.57;2.30;;;12.70;96.80;;;;;;4993382;28;20151;-70
2023/05/02 06:40:49;;;;;;;7.28;2.35;;;12.70;96.80;;;;;;4993320;28;20049;-70
2023/05/02 06:43:15;;;;;;;5.13;1.85;;;12.90;96.60;;;;;;4993200;28;20035;-71
2023/05/02 06:45:41;;;;;;;6.93;1.70;;;12.90;96.10;;;;;;4993021;28;20018;-70
2023/05/02 06:48:07;;;;;;;9.43;1.83;;;13.00;96.10;;;;;;4993016;28;20388;-70
2023/05/02 06:50:34;;;;;;;5.22;1.80;;;13.10;96.10;;;;;;4993347;28;20023;-70
2023/05/02 06:53:00;;;;;;;10.77;2.75;;;13.30;96.50;;;;;;4993072;28;20043;-70
2023/05/02 06:55:25;;;;;;;9.05;2.33;;;13.40;95.40;;;;;;4993129;28;20033;-70
2023/05/02 06:57:54;;;;;;;9.45;3.28;;;13.40;95.30;;;;;;4992896;28;20072;-70
2023/05/02 07:00:20;;;;;;;7.95;2.83;;;13.40;95.30;;;;;;4993080;28;20030;-70
2023/05/02 07:02:46;;;;;;;8.98;2.95;;;13.40;95.50;;;;;;4992825;28;20030;-70
2023/05/02 07:05:14;;;;;;;9.65;3.42;;;13.60;94.90;;;;;;4993109;28;20081;-70
2023/05/02 07:07:41;;;;;;;8.45;3.75;;;13.70;94.80;;;;;;4993077;28;20121;-70
2023/05/02 07:10:07;;;;;;;9.75;4.00;;;13.70;94.50;;;;;;4993259;28;20030;-71
2023/05/02 07:12:33;;;;;;;14.07;4.22;;;13.90;94.80;;;;;;4995805;28;20045;-70
2023/05/02 07:14:59;;;;;;;12.05;4.85;;;14.10;95.20;;;;;;4996341;28;20101;-70
2023/05/02 07:17:25;;;;;;;7.53;4.45;;;13.80;94.00;;;;;;4996575;28;20026;-70
2023/05/02 07:19:51;;;;;;;5.63;3.63;;;13.60;93.90;;;;;;4996661;28;20034;-70
2023/05/02 07:22:17;;;;;;;10.20;4.68;;;13.80;95.30;;;;;;4996571;28;20539;-71
2023/05/02 07:24:42;;;;;;;11.57;5.20;;;13.90;94.10;;;;;;4996546;28;20101;-71
2023/05/02 07:27:09;;;;;;;8.80;5.68;;;14.00;93.70;;;;;;4996458;28;20030;-71
2023/05/02 07:29:35;;;;;;;9.98;5.88;;;14.10;94.10;;;;;;4996520;28;20105;-70
2023/05/02 07:32:01;;;;;;;9.85;7.15;;;14.10;93.70;;;;;;4996405;28;20450;-70
2023/05/02 07:34:26;;;;;;;12.75;8.73;;;14.30;94.00;;;;;;4996270;28;20449;-69
2023/05/02 07:36:52;;;;;;;9.18;5.95;;;14.30;93.90;;;;;;4996355;28;20518;-69
2023/05/02 07:39:18;;;;;;;8.13;3.97;;;14.50;94.00;;;;;;4996077;28;20241;-71
2023/05/02 07:41:43;;;;;;;8.45;4.50;;;14.50;94.10;;;;;;4996739;28;20033;-71
2023/05/02 07:44:10;;;;;;;10.63;5.00;;;14.70;93.60;;;;;;4995956;28;20026;-70
2023/05/02 07:46:35;;;;;;;6.22;4.40;;;14.60;92.10;;;;;;4996064;28;20022;-70
2023/05/02 07:49:01;;;;;;;8.68;3.35;;;14.80;92.70;;;;;;4995896;28;20502;-70
2023/05/02 07:51:26;;;;;;;9.15;2.83;;;15.20;91.70;;;;;;4995936;28;20037;-70
2023/05/02 07:53:54;;;;;;;7.43;3.45;;;15.10;91.40;;;;;;4995970;28;20026;-70
2023/05/02 07:56:20;;;;;;;7.63;2.88;;;15.20;91.10;;;;;;4996239;28;20025;-70
2023/05/02 07:58:46;;;;;;;10.20;3.03;;;15.20;91.30;;;;;;4995473;28;20026;-69
2023/05/02 08:01:11;;;;;;;7.68;2.08;;;15.20;91.00;;;;;;4995845;28;20018;-70
2023/05/02 08:03:37;;;;;;;7.93;2.15;;;15.00;90.60;;;;;;4995832;28;20034;-70
2023/05/02 08:06:03;;;;;;;13.65;2.78;;;15.20;91.70;;;;;;4995920;28;20453;-68
2023/05/02 08:08:28;;;;;;;8.40;2.13;;;15.50;92.20;;;;;;4995838;28;20042;-68
2023/05/02 08:10:54;;;;;;;8.40;1.70;;;15.70;92.10;;;;;;4995740;28;20464;-68
2023/05/02 08:13:20;;;;;;;5.82;1.70;;;15.70;91.50;;;;;;4995313;28;20126;-68
2023/05/02 08:15:45;;;;;;;6.32;1.40;;;15.80;91.20;;;;;;4995993;28;20500;-68
2023/05/02 08:18:11;;;;;;;7.47;2.17;;;15.90;90.70;;;;;;4995541;28;20034;-68
2023/05/02 08:20:37;;;;;;;7.72;1.75;;;15.90;90.70;;;;;;4995332;28;20077;-68
2023/05/02 08:23:02;;;;;;;4.95;1.58;;;16.00;90.60;;;;;;4994463;28;20022;-68
2023/05/02 08:25:29;;;;;;;6.68;1.85;;;16.10;90.40;;;;;;4995293;28;20461;-68
2023/05/02 08:27:54;;;;;;;6.70;1.98;;;16.20;90.20;;;;;;4995177;28;20053;-68
2023/05/02 08:30:20;;;;;;;5.00;1.80;;;16.20;90.30;;;;;;4995094;28;20482;-68
2023/05/02 08:32:46;;;;;;;7.22;2.03;;;16.30;90.40;;;;;;4995155;28;20042;-68
2023/05/02 08:35:11;;;;;;;6.38;1.85;;;16.30;90.60;;;;;;4995316;28;20026;-68
2023/05/02 08:37:38;;;;;;;8.20;2.15;;;16.40;90.00;;;;;;4995257;28;20041;-68
2023/05/02 08:40:04;;;;;;;6.60;2.00;;;16.40;89.80;;;;;;4995197;28;20022;-68
2023/05/02 08:42:32;;;;;;;11.23;2.72;;;16.40;89.90;;;;;;4994905;28;20028;-68
2023/05/02 08:44:58;;;;;;;5.97;2.30;;;16.50;89.60;;;;;;4994958;28;20057;-68
2023/05/02 08:47:26;;;;;;;8.65;2.03;;;16.50;89.10;;;;;;4995109;28;20018;-69
2023/05/02 08:49:54;;;;;;;6.70;2.38;;;16.50;88.90;;;;;;4994947;28;20041;-69
2023/05/02 08:52:21;;;;;;;11.05;2.55;;;16.30;84.90;;;;;;4994863;28;20027;-70
2023/05/02 08:54:48;;;;;;;11.40;2.60;;;15.90;85.60;;;;;;4994887;28;20025;-70
2023/05/02 08:57:13;;;;;;;9.15;2.90;;;15.70;87.00;;;;;;4994691;28;20073;-70
2023/05/02 08:59:41;;;;;;;7.63;3.50;;;15.70;89.70;;;;;;4994655;28;20026;-70
2023/05/02 09:02:32;;;;;;;10.90;4.47;;;15.30;87.10;;;;;;4994774;28;20022;-70
2023/05/02 09:05:05;;;;;;;11.65;3.88;;;15.10;88.60;;;;;;4987690;28;20129;-69
2023/05/02 09:07:46;;;;;;;12.20;4.10;;;15.30;89.20;;;;;;4994625;28;20480;-70
2023/05/02 09:10:15;;;;;;;11.00;5.00;;;15.30;86.60;;;;;;4994288;28;20026;-70
2023/05/02 09:12:41;;;;;;;10.18;4.15;;;15.10;86.40;;;;;;4994489;28;20377;-69
2023/05/02 09:15:12;;;;;;;8.63;4.47;;;14.80;87.20;;;;;;4994561;28;20081;-69
2023/05/02 09:17:45;;;;;;;14.82;4.93;;;14.80;87.90;;;;;;4994364;28;20097;-70
2023/05/02 09:20:13;;;;;;;9.48;3.33;;;15.10;88.80;;;;;;4994349;28;20030;-70
2023/05/02 09:22:50;;;;;;;10.65;3.63;;;15.30;88.90;;;;;;4994029;28;20508;-70
2023/05/02 09:25:16;;;;;;;8.18;2.60;;;15.10;86.10;;;;;;4994084;28;20113;-70
2023/05/02 09:27:55;;;;;;;9.98;3.50;;;15.10;88.30;;;;;;4994266;28;20030;-70
2023/05/02 09:30:25;;;;;;;10.07;3.95;;;15.20;86.50;;;;;;4994308;28;20034;-70
2023/05/02 09:32:53;;;;;;;12.45;3.58;;;15.10;87.10;;;;;;4993908;28;20514;-70
2023/05/02 09:35:22;;;;;;;10.60;3.55;;;15.10;87.60;;;;;;4993900;28;20027;-70
2023/05/02 09:37:53;;;;;;;10.10;3.50;;;15.40;88.10;;;;;;4993955;28;20184;-70
2023/05/02 09:40:19;;;;;;;12.55;4.30;;;15.50;86.20;;;;;;4994086;28;20018;-69
2023/05/02 09:42:45;;;;;;;14.52;3.95;;;15.40;85.80;;;;;;5008874;28;20392;-69
2023/05/02 09:45:31;;;;;;;8.65;3.90;;;15.30;87.70;;;;;;4993942;28;20014;-69
2023/05/02 09:48:01;;;;;;;11.23;3.95;;;15.60;87.20;;;;;;4992154;28;20480;-70
2023/05/02 09:50:37;;;;;;;12.27;5.45;;;15.30;87.10;;;;;;4993993;28;20022;-70
2023/05/02 09:53:04;;;;;;;11.23;3.67;;;15.30;87.00;;;;;;4993629;28;20044;-70
2023/05/02 09:55:30;;;;;;;9.55;3.80;;;15.10;88.80;;;;;;4993604;28;20058;-70
2023/05/02 09:57:55;;;;;;;10.57;4.70;;;15.20;87.50;;;;;;4993564;28;20479;-70
2023/05/02 10:00:21;;;;;;;10.02;4.70;;;15.10;88.10;;;;;;4993859;28;20122;-70
2023/05/02 10:02:50;;;;;;;11.77;4.78;;;15.30;88.60;;;;;;4993726;28;20030;-70
2023/05/02 10:05:16;;;;;;;17.42;5.43;;;15.40;87.70;;;;;;4993400;28;20376;-70
2023/05/02 10:07:45;;;;;;;9.40;4.28;;;14.90;88.60;;;;;;4993469;28;20081;-70
2023/05/02 10:10:15;;;;;;;11.38;6.18;;;14.90;89.80;;;;;;4993492;28;20101;-70
2023/05/02 10:12:42;;;;;;;15.02;7.20;;;14.90;87.10;;;;;;4993460;28;20030;-69
2023/05/02 10:15:10;;;;;;;7.97;4.53;;;14.80;88.10;;;;;;4993658;28;20535;-69
2023/05/02 10:17:41;;;;;;;8.63;4.40;;;14.80;86.90;;;;;;4993542;28;20026;-69
2023/05/02 10:20:07;;;;;;;12.77;5.03;;;14.80;86.70;;;;;;4993363;28;20029;-69
2023/05/02 10:22:34;;;;;;;11.40;4.05;;;14.70;87.10;;;;;;4993371;28;20411;-70
2023/05/02 10:25:02;;;;;;;8.38;4.20;;;14.80;87.50;;;;;;4993166;28;20040;-70
2023/05/02 10:27:29;;;;;;;11.13;4.88;;;14.90;86.10;;;;;;4993249;28;20030;-69
2023/05/02 10:29:57;;;;;;;13.00;5.63;;;15.00;85.30;;;;;;4993452;28;20511;-70
2023/05/02 10:32:26;;;;;;;7.93;4.38;;;15.00;86.40;;;;;;4993237;28;20064;-69
2023/05/02 10:34:55;;;;;;;9.80;4.20;;;15.00;84.60;;;;;;4993109;28;20034;-69
2023/05/02 10:37:23;;;;;;;8.88;3.75;;;15.10;84.90;;;;;;4992813;28;20049;-70
2023/05/02 10:39:49;;;;;;;8.60;3.22;;;15.10;83.80;;;;;;4993462;28;20022;-70
2023/05/02 10:42:17;;;;;;;10.60;3.25;;;15.20;83.80;;;;;;4993338;28;20023;-69
2023/05/02 10:44:43;;;;;;;6.72;3.17;;;15.10;82.90;;;;;;4993412;28;20042;-71
2023/05/02 10:47:22;;;;;;;7.20;2.63;;;15.50;81.70;;;;;;4995286;28;20089;-71
2023/05/02 10:49:59;;;;;;;6.90;2.80;;;15.80;80.30;;;;;;4997515;28;20069;-71
2023/05/02 10:52:32;;;;;;;8.30;2.72;;;15.90;79.40;;;;;;4996784;28;20084;-71
2023/05/02 10:55:21;;;;;;;10.98;3.10;;;16.10;81.30;;;;;;4997085;28;20053;-71
2023/05/02 10:57:58;;;;;;;7.15;2.90;;;16.10;80.30;;;;;;4996988;28;20054;-71
2023/05/02 11:00:29;;;;;;;8.43;2.90;;;16.20;80.50;;;;;;4997028;28;20030;-71
2023/05/02 11:02:55;;;;;;;9.90;3.35;;;16.20;79.80;;;;;;4996886;28;20478;-71
2023/05/02 11:05:24;;;;;;;7.57;2.55;;;16.30;79.90;;;;;;4996732;28;20520;-72
2023/05/02 11:08:16;;;;;;;7.50;3.00;;;16.20;79.10;;;;;;4996616;28;20053;-71
2023/05/02 11:10:42;;;;;;;7.18;2.17;;;16.20;78.20;;;;;;4996806;28;20038;-71
2023/05/02 11:13:08;;;;;;;4.68;1.65;;;16.30;80.40;;;;;;4996848;28;20465;-71
2023/05/02 11:15:39;;;;;;;9.20;3.22;;;16.40;80.90;;;;;;4996660;28;20080;-72
2023/05/02 11:18:13;;;;;;;10.73;3.15;;;16.60;80.20;;;;;;4996850;28;20026;-72
2023/05/02 11:20:43;;;;;;;8.18;3.30;;;16.70;81.90;;;;;;4996344;28;20018;-69
2023/05/02 11:23:15;;;;;;;7.28;3.30;;;16.60;78.50;;;;;;4996390;28;20105;-72
2023/05/02 11:25:43;;;;;;;10.32;2.88;;;16.40;78.10;;;;;;4996685;28;20527;-71
2023/05/02 11:28:36;;;;;;;8.63;3.63;;;16.30;78.50;;;;;;4996443;28;20026;-72
2023/05/02 11:31:25;;;;;;;7.78;3.33;;;16.40;79.10;;;;;;4996410;28;20030;-72
2023/05/02 11:34:01;;;;;;;7.20;3.25;;;16.10;79.10;;;;;;4996152;28;20038;-72
2023/05/02 11:36:29;;;;;;;6.40;2.47;;;16.20;79.40;;;;;;4996080;28;20042;-72
2023/05/02 11:38:54;;;;;;;11.38;3.67;;;16.20;80.20;;;;;;4996263;28;20415;-72
2023/05/02 11:41:20;;;;;;;7.22;3.20;;;16.20;78.10;;;;;;4996318;28;20026;-72
2023/05/02 11:43:46;;;;;;;4.03;2.80;;;16.10;78.50;;;;;;4996217;28;20030;-72
2023/05/02 11:46:11;;;;;;;8.60;3.45;;;16.20;79.70;;;;;;4996093;28;20043;-72
2023/05/02 11:48:37;;;;;;;11.68;4.47;;;16.20;79.40;;;;;;4996172;28;20467;-72
2023/05/02 11:51:05;;;;;;;9.55;3.42;;;16.40;79.80;;;;;;4994550;28;20399;-72
2023/05/02 11:53:32;;;;;;;7.78;3.67;;;16.50;78.80;;;;;;4996058;28;20508;-72
2023/05/02 11:56:00;;;;;;;8.80;2.92;;;16.30;77.60;;;;;;4995988;28;20014;-71
2023/05/02 11:58:33;;;;;;;7.53;3.53;;;16.30;78.50;;;;;;4995846;28;20018;-70
2023/05/02 12:01:13;;;;;;;7.75;1.88;;;16.20;77.90;;;;;;4995792;28;20069;-70
2023/05/02 12:03:39;;;;;;;7.40;2.42;;;16.30;80.50;;;;;;4995971;28;20022;-71
2023/05/02 12:06:10;;;;;;;5.57;1.65;;;16.30;76.40;;;;;;4995479;28;20081;-70
2023/05/02 12:08:37;;;;;;;6.50;2.70;;;16.40;81.00;;;;;;4995800;28;20412;-70
2023/05/02 12:11:02;;;;;;;7.55;2.83;;;16.50;77.10;;;;;;4995758;28;20046;-71
2023/05/02 12:13:28;;;;;;;8.07;2.22;;;16.50;77.30;;;;;;4995707;28;20432;-70
2023/05/02 12:15:55;;;;;;;6.45;2.80;;;16.50;76.90;;;;;;4995508;28;20523;-70
2023/05/02 12:18:22;;;;;;;6.63;2.30;;;16.50;76.20;;;;;;4995788;28;20034;-71
2023/05/02 12:20:50;;;;;;;6.82;2.88;;;16.50;77.30;;;;;;4995225;28;20022;-70
2023/05/02 12:23:16;;;;;;;4.03;2.70;;;16.40;76.20;;;;;;4995633;28;20081;-70
2023/05/02 12:25:42;;;;;;;7.97;2.13;;;16.30;75.50;;;;;;4994008;28;20034;-71
2023/05/02 12:28:09;;;;;;;8.10;3.20;;;16.40;77.30;;;;;;4995289;28;20054;-70
2023/05/02 12:30:37;;;;;;;6.30;2.50;;;16.20;76.20;;;;;;4995531;28;20026;-72
2023/05/02 12:33:03;;;;;;;11.05;3.38;;;16.30;77.20;;;;;;4995333;28;20061;-71
2023/05/02 12:35:30;;;;;;;6.53;3.08;;;16.40;76.70;;;;;;4994063;28;20030;-70
2023/05/02 12:38:15;;;;;;;3.97;2.63;;;16.30;77.00;;;;;;4995106;28;20053;-71
2023/05/02 12:40:52;;;;;;;8.52;3.42;;;16.40;76.40;;;;;;4995126;28;20030;-70
2023/05/02 12:43:21;;;;;;;7.30;3.08;;;16.50;77.10;;;;;;4995078;28;20037;-70
2023/05/02 12:45:48;;;;;;;7.10;3.30;;;16.30;75.50;;;;;;4995040;28;20088;-71